15:31
Airports
History
Links
Donate
Help keep this website running!
PayPal
Bitcoin
This page is community maintained. The information is intended for PC simulator navigation or reference.
Always use approved charts for navigation.
AB5
Bronson Creek
Bronson Creek (AB5)
British Columbia, Canada
4
Lat/Lng:56° 40' 31.04" N / 131° 5' 7.89" W
56.675289 / -131.085526
Elevation:443'ft / 135mMSL
ID / ICAO:AB5
Runways:1
Longest:03-21
Gravel 1,529m / 5,016ft
Nearby Weather14:56 GMT 2018-02-19
Nearby weather at PAWG, Wrangell located 50.6 nautical miles from AB5
Altimeter: 30.31
Visibility: 10.0 statute miles
Wind: 6 knots (from 080°)
Temp: -4°c / 25°f
Humidity: 73.6%

METAR: PAWG 191456Z 08006KT 10SM SCT060 BKN090 M04/M08 A3031 RMK AO2 SLP267 T10441083 56024

(Powered by phpweather)
Runway 03 / 21
Dimensions:1528.9 x 45.7m 5016' x 150'ft
Surface:Gravel
Runway 03 [A]Runway 21 [B]
Heading:051°TH 231°TH
Lat:
Lng:
56° 40' 15.84"N
131° 5' 43.3"W
56° 40' 46.24"N
131° 4' 32.48"W
User Notes and Comments
56° 40' 31.04" N / 131° 5' 7.89" W
Distance To
Airport ID:
Nearby Airports
4 Bob Quinn Lake 37.5 NM
BW4 ENE 57°
(U) Wrangell 50.6 NM
PAWG ( WX ) WSW 254°
(U) Stewart 66.4 NM
CZST SE 140°
(U) Petersburg James A Johnson 71.0 NM
PAPG ( WX ) W 277°
4 Iskut Village 90.9 NM
CBU2 NNE 26°
(U) Ketchikan Intl 94.4 NM
PAKT ( WX ) SSW 194°
4 El Capitan Lodge 96.7 NM
5C5 WSW 239°
VFR Chart
Flight Planning at SkyVector.com